Cromberg, California
Current Conditions -  °F | °C
As of 2:52 AM on Wednesday 22 Oct 2014 (Local Time) from KBLU Reporting Station
Clear Clear  
Wind Chill: 50°   Ceiling: Unl
Heat Index: 50°   Visibility: 10mi
Dew Point: 10°   Wind: 0mph
Humidity: 20%   Direction: NA
Pressure: 30.14"   Gusts: NA
Location:  39.7722°N, 120.711°W
Report Text: KBLU 220952Z AUTO 00000KT 10SM CLR 10/M12 A3014 RMK AO2 SLP163 T01001122
Loading
Personal Weather Stations






























Interactive Weather Map
Tropical Storm Tracking
New forecast layout! Learn more

10-Day Weather Forecast

Advertisements
Track Severe Weather on mobile